Time;durP1;ratioP1;P1;durP2;ratioP2;P2;SDS_P1;SDS_P2;PMS_P1;PMS_P2;Temp;Humidity;BMP_temperature;BMP_pressure;BME280_temperature;BME280_humidity;BME280_pressure;Samples;Min_cycle;Max_cycle;Signal;HPM_P1;HPM_P2
2022/04/12 00:01:05;;;;;;;3.17;2.58;;;;;;;14.16;39.02;101633.47;4950607;29;20343;-86
2022/04/12 00:03:33;;;;;;;3.58;3.03;;;;;;;13.72;39.26;101567.97;4969559;28;20077;-86
2022/04/12 00:06:00;;;;;;;3.25;2.38;;;;;;;13.89;38.41;101604.69;4970941;28;20063;-86
2022/04/12 00:08:27;;;;;;;1.70;1.60;;;;;;;13.57;36.89;101552.31;4953432;28;20151;-87
2022/04/12 00:10:54;;;;;;;1.88;1.42;;;;;;;13.98;35.81;101600.38;4970627;28;20050;-87
2022/04/12 00:13:22;;;;;;;4.78;1.70;;;;;;;14.12;35.88;101610.69;4953377;28;20051;-87
2022/04/12 00:15:49;;;;;;;1.52;1.33;;;;;;;14.19;34.67;101617.19;4953807;28;20065;-86
2022/04/12 00:21:02;;;;;;;1.50;1.00;;;;;;;14.11;33.74;101591.16;4970257;28;20047;-85
2022/04/12 00:23:30;;;;;;;5.25;1.48;;;;;;;13.98;33.30;101584.34;4953154;28;20471;-85
2022/04/12 00:25:56;;;;;;;2.03;1.20;;;;;;;13.85;32.86;101552.56;4970409;28;20141;-87
2022/04/12 00:28:23;;;;;;;1.77;0.90;;;;;;;14.08;33.35;101607.44;4953569;28;20050;-85
2022/04/12 00:30:50;;;;;;;2.92;1.25;;;;;;;14.15;33.60;101615.78;4953543;28;20057;-85
2022/04/12 00:33:16;;;;;;;2.88;1.13;;;;;;;13.89;33.57;101581.53;4953281;28;20149;-86
2022/04/12 00:35:43;;;;;;;2.65;1.40;;;;;;;13.65;33.47;101548.97;4953448;28;20078;-86
2022/04/12 00:38:22;;;;;;;1.55;1.23;;;;;;;13.64;33.97;101549.94;4953762;28;20149;-86
2022/04/12 00:40:49;;;;;;;1.77;1.30;;;;;;;13.91;34.01;101597.41;4953213;28;20062;-86
2022/04/12 00:43:18;;;;;;;2.22;1.35;;;;;;;13.83;34.41;101584.72;4953132;28;20477;-86
2022/04/12 00:45:48;;;;;;;1.75;1.40;;;;;;;13.77;33.86;101579.09;4953262;28;20043;-86
2022/04/12 00:48:15;;;;;;;1.55;1.05;;;;;;;13.89;33.74;101594.88;4970402;28;20066;-86
2022/04/12 00:50:43;;;;;;;1.90;1.40;;;;;;;13.88;34.75;101598.53;4952656;28;20139;-86
2022/04/12 00:53:10;;;;;;;2.95;1.50;;;;;;;13.74;35.59;101603.34;4953032;28;20042;-86
2022/04/12 00:55:38;;;;;;;2.80;1.67;;;;;;;13.66;36.36;101585.34;4953102;28;20058;-86
2022/04/12 00:58:07;;;;;;;3.95;1.73;;;;;;;13.75;36.81;101616.56;4952743;28;20145;-86
2022/04/12 01:00:34;;;;;;;3.15;1.50;;;;;;;13.65;36.91;101615.69;4970099;28;20105;-86
2022/04/12 01:03:02;;;;;;;2.35;1.65;;;;;;;13.60;37.69;101608.06;4949049;28;20082;-86
2022/04/12 01:05:29;;;;;;;3.10;1.88;;;;;;;13.52;38.12;101615.00;4949474;28;20066;-86
2022/04/12 01:07:56;;;;;;;2.58;1.63;;;;;;;13.47;37.99;101607.41;4949258;29;20130;-86
2022/04/12 01:10:23;;;;;;;1.67;1.58;;;;;;;13.49;38.22;101605.44;4950464;28;20138;-86
2022/04/12 01:12:53;;;;;;;4.93;1.90;;;;;;;12.82;38.23;101513.34;4949046;29;20441;-85
2022/04/12 01:15:23;;;;;;;2.50;1.88;;;;;;;12.75;38.91;101509.50;4949403;28;20249;-86
2022/04/12 01:17:50;;;;;;;3.08;2.10;;;;;;;13.18;38.78;101586.72;4950875;29;20083;-84
2022/04/12 01:20:19;;;;;;;2.08;1.75;;;;;;;13.18;39.38;101588.50;4954167;28;20118;-85
2022/04/12 01:23:14;;;;;;;2.65;2.17;;;;;;;13.25;40.29;101617.22;4964672;28;20055;-86
2022/04/12 01:25:41;;;;;;;2.78;2.03;;;;;;;12.57;39.71;101504.75;4952959;29;20054;-84
2022/04/12 01:28:09;;;;;;;3.10;2.08;;;;;;;13.10;39.37;101583.00;4952155;29;20069;-85
2022/04/12 01:30:37;;;;;;;3.40;2.22;;;;;;;13.11;39.90;101585.53;4949105;28;20094;-85
2022/04/12 01:33:04;;;;;;;2.60;2.08;;;;;;;13.19;39.97;101611.53;4948723;29;20043;-86
2022/04/12 01:35:31;;;;;;;2.88;2.53;;;;;;;12.81;40.51;101562.28;4949290;29;20494;-85
2022/04/12 01:37:58;;;;;;;2.60;2.40;;;;;;;13.14;40.97;101605.75;4948651;29;20086;-88
2022/04/12 01:40:25;;;;;;;3.08;2.53;;;;;;;12.24;40.85;101479.06;4949975;28;20468;-86
2022/04/12 01:42:52;;;;;;;4.13;2.10;;;;;;;12.74;41.89;101587.72;4948590;29;20051;-85
2022/04/12 01:45:21;;;;;;;2.55;2.00;;;;;;;12.34;41.93;101524.44;4949069;29;20615;-85
2022/04/12 01:47:47;;;;;;;2.83;2.40;;;;;;;12.53;42.12;101569.88;4948662;29;20077;-85
2022/04/12 01:50:14;;;;;;;3.67;2.38;;;;;;;12.39;41.64;101540.88;4949049;28;20110;-85
2022/04/12 01:52:42;;;;;;;2.45;2.03;;;;;;;12.68;41.94;101604.25;4948817;29;20098;-85
2022/04/12 01:55:09;;;;;;;3.25;2.10;;;;;;;11.74;41.86;101460.03;4948891;29;20727;-85
2022/04/12 01:57:36;;;;;;;3.80;1.85;;;;;;;11.42;41.84;101415.59;4950330;28;20047;-84
2022/04/12 02:00:05;;;;;;;3.97;1.98;;;;;;;12.39;41.58;101586.16;4948509;29;20082;-85
2022/04/12 02:02:31;;;;;;;2.63;1.77;;;;;;;12.54;41.79;101616.84;4948402;29;20062;-85
2022/04/12 02:04:58;;;;;;;2.25;1.55;;;;;;;12.37;41.56;101590.75;4948488;28;20062;-86
2022/04/12 02:07:26;;;;;;;2.88;2.03;;;;;;;12.41;41.37;101602.84;4948857;28;20504;-86
2022/04/12 02:09:53;;;;;;;2.38;1.73;;;;;;;12.50;40.94;101618.09;4948412;29;20122;-86
2022/04/12 02:12:19;;;;;;;3.08;1.63;;;;;;;12.14;41.15;101558.00;4949488;28;20065;-87
2022/04/12 02:14:46;;;;;;;2.58;1.63;;;;;;;12.47;41.44;101618.31;4948110;29;20058;-87
2022/04/12 02:17:12;;;;;;;2.50;1.50;;;;;;;12.48;40.77;101619.19;4948513;28;20047;-86
2022/04/12 02:19:39;;;;;;;1.88;1.40;;;;;;;12.14;40.96;101563.31;4952462;29;20424;-86
2022/04/12 02:22:07;;;;;;;4.38;1.70;;;;;;;11.96;41.44;101550.50;4954407;29;20431;-87
2022/04/12 02:24:34;;;;;;;2.22;1.50;;;;;;;12.18;40.92;101592.25;4958358;28;20620;-86
2022/04/12 02:27:00;;;;;;;2.78;1.63;;;;;;;12.42;41.00;101620.50;4954044;29;20137;-86
2022/04/12 02:29:27;;;;;;;3.05;2.05;;;;;;;12.21;41.48;101595.59;4949310;29;20476;-85
2022/04/12 02:31:54;;;;;;;4.80;1.60;;;;;;;12.29;41.64;101617.16;4948114;29;20055;-86
2022/04/12 02:34:20;;;;;;;2.22;1.58;;;;;;;12.30;41.78;101624.16;4947690;29;20063;-86
2022/04/12 02:36:47;;;;;;;1.88;1.48;;;;;;;12.27;41.92;101611.09;4947983;29;20071;-87
2022/04/12 02:39:14;;;;;;;3.63;1.40;;;;;;;12.26;42.11;101609.38;4947817;29;20130;-86
2022/04/12 02:41:40;;;;;;;4.57;1.85;;;;;;;11.98;41.92;101553.88;4947614;28;20154;-86
2022/04/12 02:44:07;;;;;;;3.85;2.08;;;;;;;12.18;41.77;101586.91;4947492;29;20236;-86
2022/04/12 02:46:33;;;;;;;1.70;1.30;;;;;;;12.03;41.75;101572.16;4947454;28;20643;-85
2022/04/12 02:49:00;;;;;;;2.63;1.60;;;;;;;11.86;42.18;101548.66;4947549;29;20588;-86
2022/04/12 02:51:27;;;;;;;2.70;1.85;;;;;;;12.09;41.58;101584.16;4948832;28;20106;-85
2022/04/12 02:53:53;;;;;;;2.85;1.70;;;;;;;12.00;41.35;101566.25;4947319;29;20061;-86
2022/04/12 02:56:20;;;;;;;2.58;1.90;;;;;;;12.07;42.22;101570.94;4947447;29;20150;-86
2022/04/12 02:58:46;;;;;;;2.45;1.70;;;;;;;12.22;41.02;101598.16;4948941;28;20426;-86
2022/04/12 03:01:13;;;;;;;5.57;1.75;;;;;;;12.24;40.76;101592.72;4948513;28;20059;-86
2022/04/12 03:03:40;;;;;;;3.17;1.65;;;;;;;12.31;40.87;101601.91;4947070;29;20059;-86
2022/04/12 03:06:07;;;;;;;2.85;1.60;;;;;;;12.02;40.79;101554.50;4947265;29;20055;-86
2022/04/12 03:08:33;;;;;;;4.93;1.40;;;;;;;12.27;40.84;101597.78;4947188;29;20055;-86
2022/04/12 03:11:00;;;;;;;4.03;1.80;;;;;;;11.71;40.59;101514.31;4947510;29;20082;-86
2022/04/12 03:13:27;;;;;;;3.25;1.75;;;;;;;10.58;40.89;101340.69;4947243;29;20102;-85
2022/04/12 03:15:54;;;;;;;3.90;1.52;;;;;;;11.35;40.84;101459.56;4948852;28;20081;-86
2022/04/12 03:18:20;;;;;;;3.35;2.15;;;;;;;11.62;41.05;101509.72;4948457;28;20536;-86
2022/04/12 03:20:51;;;;;;;2.55;1.60;;;;;;;10.39;41.24;101309.41;4947260;28;20090;-86
2022/04/12 03:23:21;;;;;;;2.13;1.83;;;;;;;10.42;41.43;101322.44;4947214;29;20431;-85
2022/04/12 03:25:50;;;;;;;3.50;2.20;;;;;;;10.97;41.45;101406.75;4947236;28;20074;-86
2022/04/12 03:28:16;;;;;;;4.22;1.67;;;;;;;10.50;41.49;101339.59;4946104;28;20047;-85
2022/04/12 03:30:43;;;;;;;3.95;1.90;;;;;;;11.48;41.03;101507.31;4947478;29;20093;-85
2022/04/12 03:33:10;;;;;;;1.60;1.50;;;;;;;11.29;41.85;101481.34;4947031;29;20063;-85
2022/04/12 03:35:37;;;;;;;2.25;1.70;;;;;;;11.88;41.89;101590.19;4946621;29;20202;-85
2022/04/12 03:38:03;;;;;;;4.20;1.48;;;;;;;11.51;41.92;101541.66;4948131;28;20055;-85
2022/04/12 03:40:31;;;;;;;3.13;2.03;;;;;;;11.71;41.84;101578.16;4947373;28;20501;-85
2022/04/12 03:43:04;;;;;;;5.40;1.83;;;;;;;11.53;42.67;101553.03;4946647;29;20047;-86
2022/04/12 03:45:31;;;;;;;3.83;1.60;;;;;;;11.15;42.21;101495.69;4948347;28;20078;-85
2022/04/12 03:47:58;;;;;;;3.05;1.95;;;;;;;11.63;42.40;101574.44;4955101;29;20120;-85
2022/04/12 03:50:25;;;;;;;3.30;1.85;;;;;;;11.71;42.87;101588.81;4949409;29;20047;-85
2022/04/12 03:52:53;;;;;;;1.90;1.38;;;;;;;11.34;42.49;101542.97;4947438;29;20341;-85
2022/04/12 03:55:30;;;;;;;3.75;2.15;;;;;;;11.71;42.86;101610.09;4947339;29;20050;-85
2022/04/12 03:57:58;;;;;;;3.13;1.90;;;;;;;11.69;43.04;101605.84;4946917;28;20130;-84
2022/04/12 04:00:26;;;;;;;4.13;1.92;;;;;;;11.51;43.73;101585.03;4948396;28;20557;-85
2022/04/12 04:02:53;;;;;;;7.25;2.10;;;;;;;11.47;43.84;101580.06;4946575;29;20580;-84
2022/04/12 04:05:20;;;;;;;2.30;2.00;;;;;;;10.43;44.89;101414.38;4962539;28;20055;-86
2022/04/12 04:07:46;;;;;;;5.97;2.55;;;;;;;11.34;45.64;101561.56;4946325;29;20134;-86
2022/04/12 04:10:13;;;;;;;5.65;2.35;;;;;;;11.35;45.41;101568.56;4946704;29;20074;-86
2022/04/12 04:12:40;;;;;;;4.55;2.53;;;;;;;11.62;45.84;101605.47;4946428;29;20198;-86
2022/04/12 04:15:11;;;;;;;6.57;2.95;;;;;;;11.09;47.04;101536.00;4946646;28;20497;-87
2022/04/12 04:17:42;;;;;;;2.58;2.38;;;;;;;11.19;47.21;101570.69;4947788;29;20053;-84
2022/04/12 04:20:11;;;;;;;3.05;2.25;;;;;;;11.40;47.57;101624.91;4952201;29;20051;-82
2022/04/12 04:22:40;;;;;;;3.25;2.30;;;;;;;11.23;47.44;101607.56;4953794;29;20059;-86
2022/04/12 04:25:13;;;;;;;5.45;2.50;;;;;;;10.80;47.93;101555.00;4951134;29;20564;-85
2022/04/12 04:27:41;;;;;;;2.83;2.35;;;;;;;11.29;47.45;101633.69;4947313;29;20057;-85
2022/04/12 04:30:10;;;;;;;4.00;2.63;;;;;;;11.26;48.24;101625.97;4946427;29;20102;-85
2022/04/12 04:32:37;;;;;;;4.32;2.38;;;;;;;11.28;48.23;101620.50;4947704;29;20047;-85
2022/04/12 04:35:06;;;;;;;2.63;2.40;;;;;;;11.23;48.66;101615.53;4949486;28;20086;-85
2022/04/12 04:37:43;;;;;;;4.90;2.42;;;;;;;11.03;48.68;101586.97;4946925;28;20325;-86
2022/04/12 04:40:13;;;;;;;4.97;3.05;;;;;;;11.15;48.09;101599.34;4949418;28;20466;-84
2022/04/12 04:42:40;;;;;;;2.92;2.58;;;;;;;9.75;47.94;101356.66;4949841;29;20055;-85
2022/04/12 04:45:08;;;;;;;4.32;2.88;;;;;;;10.77;48.34;101539.28;4950729;28;20063;-85
2022/04/12 04:47:34;;;;;;;4.85;2.97;;;;;;;10.74;48.47;101531.56;4950838;28;20059;-85
2022/04/12 04:50:01;;;;;;;8.82;3.42;;;;;;;10.69;48.90;101525.75;4951001;28;20059;-85
2022/04/12 04:52:28;;;;;;;5.88;3.28;;;;;;;11.20;49.80;101626.41;4949995;29;20291;-85
2022/04/12 04:54:55;;;;;;;6.82;4.20;;;;;;;10.12;49.97;101446.78;4949718;29;20143;-85
2022/04/12 04:57:21;;;;;;;11.85;3.78;;;;;;;10.96;49.27;101585.75;4953514;29;20083;-85
2022/04/12 04:59:48;;;;;;;6.65;2.80;;;;;;;11.12;49.86;101618.19;4952931;29;20138;-85
2022/04/12 05:02:15;;;;;;;7.47;3.33;;;;;;;10.14;49.29;101466.09;4959596;28;20086;-86
2022/04/12 05:04:41;;;;;;;10.77;8.38;;;;;;;10.94;49.05;101595.63;4950390;28;20533;-86
2022/04/12 05:07:08;;;;;;;14.20;4.07;;;;;;;11.03;49.32;101586.97;4968818;28;20146;-86
2022/04/12 05:09:40;;;;;;;6.88;3.33;;;;;;;9.75;49.45;101380.50;4969088;28;20053;-86
2022/04/12 05:12:08;;;;;;;7.53;4.22;;;;;;;10.75;49.60;101538.53;4969051;28;20082;-85
2022/04/12 05:14:35;;;;;;;8.48;3.90;;;;;;;10.80;49.12;101565.66;4968795;28;20154;-84
2022/04/12 05:17:04;;;;;;;9.35;5.05;;;;;;;11.20;49.80;101631.72;4951939;28;20093;-85
2022/04/12 05:19:30;;;;;;;7.38;4.07;;;;;;;11.27;50.18;101648.91;4952293;28;20050;-84
2022/04/12 05:21:57;;;;;;;7.68;3.63;;;;;;;10.86;49.90;101570.47;4954151;28;20508;-86
2022/04/12 05:24:24;;;;;;;9.00;4.00;;;;;;;11.32;49.42;101646.75;4968583;28;20568;-86
2022/04/12 05:26:51;;;;;;;3.60;3.03;;;;;;;11.23;50.02;101618.19;4951277;28;20420;-86
2022/04/12 05:29:17;;;;;;;10.38;4.00;;;;;;;11.40;49.12;101642.66;4951344;28;20376;-86
2022/04/12 05:31:44;;;;;;;5.95;3.90;;;;;;;11.48;49.50;101653.56;4967119;28;20118;-86
2022/04/12 05:34:11;;;;;;;8.13;4.00;;;;;;;11.42;50.16;101651.38;4950262;28;20050;-85
2022/04/12 05:36:37;;;;;;;8.30;3.67;;;;;;;11.32;49.54;101646.75;4950733;28;20051;-86
2022/04/12 05:39:04;;;;;;;9.43;3.38;;;;;;;11.35;49.24;101635.03;4951225;28;20073;-86
2022/04/12 05:41:31;;;;;;;6.70;3.85;;;;;;;11.31;48.82;101617.59;4951476;28;20081;-85
2022/04/12 05:43:59;;;;;;;7.70;3.45;;;;;;;11.61;49.16;101657.00;4951579;28;20394;-86
2022/04/12 05:46:26;;;;;;;6.93;3.70;;;;;;;11.23;49.01;101602.25;4951474;28;20340;-86
2022/04/12 05:48:53;;;;;;;7.70;3.70;;;;;;;11.53;48.61;101635.47;4968180;28;20055;-86
2022/04/12 05:51:19;;;;;;;6.28;3.92;;;;;;;11.67;47.79;101650.34;4967751;28;20138;-86
2022/04/12 05:53:46;;;;;;;10.05;3.83;;;;;;;10.65;48.08;101477.31;4951137;28;20046;-86
2022/04/12 05:56:13;;;;;;;9.43;3.65;;;;;;;11.94;47.83;101666.88;4968751;28;20054;-86
2022/04/12 05:58:40;;;;;;;7.15;3.40;;;;;;;12.02;47.55;101673.41;4951767;28;20343;-85
2022/04/12 06:01:07;;;;;;;6.25;3.70;;;;;;;11.96;46.97;101656.09;4951642;28;20078;-85
2022/04/12 06:03:34;;;;;;;7.10;3.42;;;;;;;11.98;46.57;101649.69;4955667;28;20078;-86
2022/04/12 06:06:01;;;;;;;9.18;4.35;;;;;;;10.91;46.70;101467.38;4961357;29;20058;-87
2022/04/12 06:08:28;;;;;;;10.27;4.03;;;;;;;12.27;46.88;101685.66;4952315;29;20078;-87
2022/04/12 06:10:55;;;;;;;8.15;4.68;;;;;;;12.05;47.13;101643.91;4955269;29;20059;-86
2022/04/12 06:13:22;;;;;;;11.93;4.47;;;;;;;11.92;46.97;101625.41;4957594;29;20083;-86
2022/04/12 06:15:49;;;;;;;6.10;4.15;;;;;;;12.18;46.80;101649.94;4947795;29;20098;-87
2022/04/12 06:18:15;;;;;;;7.57;4.45;;;;;;;11.57;45.85;101527.88;4948812;29;20051;-85
2022/04/12 06:20:43;;;;;;;6.60;3.88;;;;;;;12.48;45.92;101681.28;4949988;28;20074;-86
2022/04/12 06:23:09;;;;;;;19.92;5.72;;;;;;;11.26;46.40;101461.16;4948462;29;20051;-86
2022/04/12 06:25:36;;;;;;;13.32;4.40;;;;;;;12.38;45.16;101632.41;4948077;29;20121;-86
2022/04/12 06:28:03;;;;;;;6.75;3.72;;;;;;;11.13;45.19;101412.56;4948424;28;20127;-86
2022/04/12 06:30:32;;;;;;;14.65;4.63;;;;;;;12.10;44.62;101557.38;4948443;29;20114;-86
2022/04/12 06:32:59;;;;;;;16.13;4.25;;;;;;;12.90;43.75;101668.13;4949405;28;20660;-87
2022/04/12 06:35:26;;;;;;;8.45;3.50;;;;;;;12.52;43.18;101594.81;4949483;28;20122;-86
2022/04/12 06:37:56;;;;;;;6.50;3.90;;;;;;;11.54;43.23;101419.09;4947617;29;20075;-87
2022/04/12 06:40:25;;;;;;;8.55;3.03;;;;;;;12.74;42.31;101595.72;4947930;29;20523;-86
2022/04/12 06:42:52;;;;;;;7.72;3.83;;;;;;;12.77;41.31;101593.66;4961297;29;20129;-85
2022/04/12 06:45:20;;;;;;;10.80;2.90;;;;;;;12.61;40.03;101550.59;4950486;28;20063;-85
2022/04/12 06:47:54;;;;;;;5.63;2.80;;;;;;;11.79;38.85;101398.47;4953931;28;20047;-85
2022/04/12 06:50:22;;;;;;;7.20;2.50;;;;;;;12.59;38.76;101521.41;4968120;29;20055;-84
2022/04/12 06:52:50;;;;;;;2.55;1.85;;;;;;;12.35;38.10;101452.41;4956358;28;20100;-84
2022/04/12 06:55:16;;;;;;;6.35;1.95;;;;;;;13.78;38.27;101682.19;4951369;28;20157;-85
2022/04/12 06:57:43;;;;;;;3.25;1.73;;;;;;;13.84;37.19;101676.31;4956066;29;20509;-85
2022/04/12 07:00:11;;;;;;;3.35;1.73;;;;;;;14.02;36.18;101689.91;4946989;29;20413;-85
2022/04/12 07:02:38;;;;;;;5.43;1.88;;;;;;;14.03;35.92;101681.78;4961480;28;20078;-85
2022/04/12 07:05:07;;;;;;;2.88;2.25;;;;;;;14.12;36.13;101688.13;4961833;28;20051;-84
2022/04/12 07:07:41;;;;;;;5.15;2.00;;;;;;;13.95;36.37;101667.38;4955631;28;20416;-85
2022/04/12 07:10:12;;;;;;;3.72;1.98;;;;;;;13.66;36.63;101628.88;4950959;28;20129;-84
2022/04/12 07:12:39;;;;;;;2.78;1.80;;;;;;;13.92;37.01;101665.81;4950880;28;20097;-85
2022/04/12 07:15:07;;;;;;;9.63;2.55;;;;;;;14.11;37.43;101691.78;4951514;28;20117;-85
2022/04/12 07:17:34;;;;;;;5.40;2.33;;;;;;;13.64;36.97;101604.16;4954169;28;20053;-86
2022/04/12 07:20:02;;;;;;;5.40;2.50;;;;;;;13.92;37.07;101646.28;4976371;28;20078;-84
2022/04/12 07:22:29;;;;;;;4.28;2.35;;;;;;;14.33;36.24;101691.59;4959772;28;20074;-85
2022/04/12 07:24:55;;;;;;;3.25;2.05;;;;;;;14.41;36.50;101698.09;4955347;28;20493;-85
2022/04/12 07:27:22;;;;;;;2.95;2.35;;;;;;;13.72;36.65;101611.50;4950199;28;20042;-85
2022/04/12 07:29:49;;;;;;;3.15;2.03;;;;;;;12.87;36.25;101467.66;4952479;28;20061;-84
2022/04/12 07:32:15;;;;;;;6.63;2.45;;;;;;;14.35;36.65;101688.81;4950597;28;20055;-85
2022/04/12 07:34:42;;;;;;;4.93;2.10;;;;;;;14.49;35.85;101695.56;4950268;28;20567;-85
2022/04/12 07:37:09;;;;;;;3.88;2.10;;;;;;;14.56;36.23;101696.75;4950355;28;20137;-85
2022/04/12 07:39:35;;;;;;;5.95;2.38;;;;;;;13.99;36.43;101628.78;4950054;28;20587;-86
2022/04/12 07:42:02;;;;;;;2.97;2.00;;;;;;;14.56;36.47;101706.63;4946594;28;20430;-85
2022/04/12 07:44:34;;;;;;;3.40;2.10;;;;;;;14.01;36.17;101624.16;4931729;29;20082;-85
2022/04/12 07:47:04;;;;;;;3.50;2.38;;;;;;;14.54;37.17;101704.09;4946768;29;20051;-85
2022/04/12 07:49:31;;;;;;;3.35;2.28;;;;;;;14.17;36.55;101627.16;4947448;28;20071;-85
2022/04/12 07:51:57;;;;;;;3.00;2.38;;;;;;;13.97;37.42;101593.34;4949608;29;20130;-84
2022/04/12 07:54:24;;;;;;;5.18;2.20;;;;;;;14.62;37.77;101700.75;4949986;29;20147;-85
2022/04/12 07:56:51;;;;;;;4.70;2.63;;;;;;;14.33;37.11;101643.50;4932668;29;20783;-84
2022/04/12 07:59:18;;;;;;;3.92;2.85;;;;;;;14.66;37.15;101675.41;4946986;29;20075;-84
2022/04/12 08:01:44;;;;;;;5.90;2.88;;;;;;;14.83;37.25;101701.50;4948196;29;20051;-85
2022/04/12 08:04:11;;;;;;;5.32;3.45;;;;;;;14.26;36.74;101588.94;4946711;29;20528;-83
2022/04/12 08:06:38;;;;;;;5.50;3.33;;;;;;;14.99;36.92;101710.81;4931512;29;20118;-83
2022/04/12 08:09:06;;;;;;;4.47;2.75;;;;;;;14.85;36.92;101685.31;4930697;29;20510;-83
2022/04/12 08:11:35;;;;;;;4.95;3.03;;;;;;;14.98;36.46;101707.28;4947399;29;20394;-83
2022/04/12 08:14:02;;;;;;;5.47;3.17;;;;;;;14.83;36.37;101695.28;4948846;28;20545;-84
2022/04/12 08:16:28;;;;;;;4.13;3.05;;;;;;;14.79;36.62;101712.59;4933994;29;20074;-83
2022/04/12 08:18:55;;;;;;;6.45;3.15;;;;;;;14.82;37.62;101707.81;4951465;29;20051;-83
2022/04/12 08:21:42;;;;;;;7.13;3.42;;;;;;;14.93;37.71;101715.72;4934031;29;20573;-84
2022/04/12 08:24:08;;;;;;;4.20;2.83;;;;;;;14.98;37.17;101712.66;4950022;29;20105;-85
2022/04/12 08:26:38;;;;;;;5.60;3.00;;;;;;;14.97;37.53;101705.59;4950608;29;20059;-86
2022/04/12 08:29:05;;;;;;;5.90;3.15;;;;;;;14.96;37.53;101710.09;4950167;29;20397;-85
2022/04/12 08:31:32;;;;;;;3.42;2.90;;;;;;;14.26;37.93;101578.25;4952600;29;20055;-84
2022/04/12 08:33:59;;;;;;;6.05;3.92;;;;;;;14.64;37.33;101630.13;4951117;28;20070;-85
2022/04/12 08:36:25;;;;;;;4.93;3.70;;;;;;;15.12;37.22;101688.19;4949797;29;20158;-85
2022/04/12 08:38:53;;;;;;;9.48;4.22;;;;;;;15.01;37.16;101696.31;4950182;29;20106;-85
2022/04/12 08:41:23;;;;;;;6.53;3.67;;;;;;;14.77;37.11;101661.94;4963861;28;20050;-85
2022/04/12 08:43:58;;;;;;;5.45;3.53;;;;;;;14.71;37.50;101663.34;4989653;28;20050;-85
2022/04/12 08:46:27;;;;;;;4.30;3.50;;;;;;;14.89;37.19;101703.59;4972487;28;20046;-84
2022/04/12 08:48:56;;;;;;;4.65;3.78;;;;;;;14.17;37.91;101584.41;4972570;28;20152;-84
2022/04/12 08:51:27;;;;;;;10.23;4.20;;;;;;;14.43;38.09;101632.03;4990329;28;20449;-85
2022/04/12 08:53:58;;;;;;;12.68;8.07;;;;;;;14.98;38.35;101718.00;4973447;28;20517;-84
2022/04/12 08:56:27;;;;;;;7.85;3.72;;;;;;;13.73;38.59;101510.94;4999510;28;20141;-84
2022/04/12 08:58:55;;;;;;;6.75;3.58;;;;;;;14.05;38.84;101550.78;4960891;28;20209;-84
2022/04/12 09:01:39;;;;;;;4.80;3.58;;;;;;;15.05;39.08;101721.81;4957863;28;20058;-84
2022/04/12 09:04:07;;;;;;;7.82;3.75;;;;;;;14.98;38.96;101701.94;4953136;28;20141;-84
2022/04/12 09:06:34;;;;;;;5.22;3.50;;;;;;;14.88;39.05;101691.25;4957595;28;20113;-87
2022/04/12 09:09:12;;;;;;;5.15;3.88;;;;;;;15.10;39.22;101706.19;4954342;28;20113;-85
2022/04/12 09:11:41;;;;;;;5.35;3.67;;;;;;;14.84;39.94;101644.38;4970310;28;20138;-82
2022/04/12 09:14:13;;;;;;;5.38;3.83;;;;;;;15.28;39.49;101709.00;4970023;28;20047;-85
2022/04/12 09:16:44;;;;;;;14.40;3.95;;;;;;;15.18;39.38;101671.56;4953326;28;20082;-84
2022/04/12 09:19:12;;;;;;;8.40;4.68;;;;;;;15.45;39.13;101694.06;4952384;28;20105;-85
2022/04/12 09:21:46;;;;;;;8.68;3.90;;;;;;;15.29;39.35;101642.97;4951344;28;20109;-85
2022/04/12 09:24:20;;;;;;;5.50;3.40;;;;;;;15.75;38.97;101710.97;4952286;28;20287;-86
2022/04/12 09:26:57;;;;;;;5.28;3.78;;;;;;;15.89;39.49;101707.84;4968369;28;20478;-87
2022/04/12 09:29:29;;;;;;;9.93;4.38;;;;;;;15.67;38.77;101636.72;4952122;28;20057;-87
2022/04/12 09:31:59;;;;;;;7.10;4.07;;;;;;;16.25;38.48;101708.03;4969606;28;20074;-86
2022/04/12 09:34:26;;;;;;;7.07;3.83;;;;;;;16.24;38.13;101676.91;4955642;28;20047;-86
2022/04/12 09:37:33;;;;;;;5.93;3.38;;;;;;;16.30;38.00;101652.16;4957177;28;20038;-84
2022/04/12 09:40:00;;;;;;;10.38;4.25;;;;;;;16.86;37.25;101702.13;4969089;28;20043;-85
2022/04/12 09:42:36;;;;;;;5.47;4.05;;;;;;;16.08;36.83;101556.13;4951033;28;20050;-85
2022/04/12 09:45:07;;;;;;;6.75;3.97;;;;;;;16.97;36.58;101697.56;4952415;28;20054;-85
2022/04/12 09:47:34;;;;;;;5.55;4.40;;;;;;;16.86;36.81;101643.13;4951990;28;20061;-84
2022/04/12 09:50:24;;;;;;;7.70;4.03;;;;;;;16.94;36.04;101599.44;4942401;28;20058;-83
2022/04/12 09:53:03;;;;;;;6.30;4.50;;;;;;;17.75;35.95;101691.53;4952014;28;20061;-85
2022/04/12 09:55:40;;;;;;;6.65;4.72;;;;;;;17.77;34.68;101676.94;4952327;28;20051;-85
2022/04/12 09:58:12;;;;;;;8.38;4.53;;;;;;;17.91;34.80;101694.34;4969335;28;20055;-86
2022/04/12 10:00:41;;;;;;;6.47;4.97;;;;;;;17.40;34.92;101612.72;4968920;28;20149;-86
2022/04/12 10:03:11;;;;;;;10.50;4.60;;;;;;;17.85;35.30;101689.59;4971872;28;20051;-84
2022/04/12 10:05:39;;;;;;;6.40;4.82;;;;;;;17.10;34.90;101561.19;4977042;28;20153;-85
2022/04/12 10:08:10;;;;;;;5.72;4.63;;;;;;;17.63;35.27;101640.75;4954930;28;20066;-85
2022/04/12 10:10:40;;;;;;;7.53;5.20;;;;;;;17.86;34.74;101656.38;4954559;28;20089;-85
2022/04/12 10:13:09;;;;;;;8.57;5.93;;;;;;;18.01;34.36;101665.53;4952147;28;20086;-85
2022/04/12 10:15:37;;;;;;;7.72;5.40;;;;;;;18.19;34.98;101670.81;4951226;28;20577;-85
2022/04/12 10:18:04;;;;;;;8.15;5.25;;;;;;;18.19;34.99;101678.88;4952463;28;20158;-85
2022/04/12 10:20:31;;;;;;;6.97;5.50;;;;;;;18.20;34.26;101674.34;4952675;28;20150;-86
2022/04/12 10:22:59;;;;;;;9.98;5.88;;;;;;;16.64;35.05;101412.97;4951655;28;20129;-85
2022/04/12 10:25:26;;;;;;;9.30;5.32;;;;;;;18.22;34.73;101661.59;4952286;28;20141;-85
2022/04/12 10:27:57;;;;;;;7.43;5.90;;;;;;;18.02;34.78;101626.91;4952338;28;20089;-85
2022/04/12 10:30:26;;;;;;;7.10;5.65;;;;;;;18.17;34.97;101651.34;4952086;28;20274;-85
2022/04/12 10:33:08;;;;;;;7.55;6.07;;;;;;;17.99;34.73;101623.72;4951391;28;20553;-86
2022/04/12 10:35:44;;;;;;;;;;;;;;;18.10;34.77;101651.13;4951234;28;20057;-84
2022/04/12 10:38:11;;;;;;;8.50;6.47;;;;;;;18.05;35.26;101656.13;4950557;28;19932;-86
2022/04/12 10:40:48;;;;;;;7.85;6.60;;;;;;;17.63;34.98;101584.38;4958349;28;20125;-85
2022/04/12 10:43:33;;;;;;;6.57;5.95;;;;;;;18.04;34.73;101634.81;4971116;28;20117;-84
2022/04/12 10:46:03;;;;;;;7.80;6.28;;;;;;;18.25;35.46;101645.97;4952147;28;20517;-85
2022/04/12 10:48:31;;;;;;;8.57;7.43;;;;;;;18.57;35.24;101631.00;4967731;28;20055;-85
2022/04/12 10:50:59;;;;;;;7.88;6.80;;;;;;;18.66;35.78;101597.72;4948878;28;20082;-85
2022/04/12 10:53:46;;;;;;;9.90;7.90;;;;;;;18.89;34.83;101581.00;4948304;28;20142;-85
2022/04/12 10:56:15;;;;;;;12.48;7.97;;;;;;;19.43;33.70;101622.50;4947892;28;20051;-85
2022/04/12 10:58:43;;;;;;;9.32;7.88;;;;;;;18.69;33.76;101467.44;4940009;28;20058;-85
2022/04/12 11:01:46;;;;;;;8.85;7.47;;;;;;;19.72;34.23;101596.91;4947411;28;20063;-85
2022/04/12 11:04:27;;;;;;;10.88;8.00;;;;;;;20.12;33.92;101607.72;4885954;29;20060;-85
2022/04/12 11:06:58;;;;;;;9.17;7.57;;;;;;;19.04;33.39;101368.56;4921253;29;20482;-85
2022/04/12 11:09:27;;;;;;;11.45;7.90;;;;;;;20.74;32.13;101606.94;4925993;29;20057;-84
2022/04/12 11:11:53;;;;;;;10.52;8.30;;;;;;;21.07;31.41;101612.94;4926845;29;20485;-85
2022/04/12 11:14:22;;;;;;;8.98;7.43;;;;;;;21.21;31.63;101605.88;4911208;29;20055;-84
2022/04/12 11:16:51;;;;;;;9.68;7.32;;;;;;;21.28;30.35;101598.72;4929358;29;20070;-84
2022/04/12 11:19:22;;;;;;;11.90;7.40;;;;;;;21.45;30.02;101600.28;4936250;29;20051;-85
2022/04/12 11:21:59;;;;;;;11.77;9.20;;;;;;;21.61;29.62;101584.94;4939880;29;20545;-85
2022/04/12 11:24:25;;;;;;;10.43;8.80;;;;;;;21.08;29.45;101495.81;4940601;29;20078;-84
2022/04/12 11:27:10;;;;;;;11.75;7.97;;;;;;;21.78;29.45;101591.84;4929675;29;20143;-85
2022/04/12 11:29:41;;;;;;;9.90;8.15;;;;;;;22.00;30.08;101591.94;4926537;29;20566;-85
2022/04/12 11:32:10;;;;;;;9.30;8.00;;;;;;;22.16;29.52;101580.88;4926870;29;20339;-85
2022/04/12 11:34:39;;;;;;;15.32;9.02;;;;;;;22.10;29.64;101571.69;4930653;29;20090;-85